sensor_id;sensor_type;location;lat;lon;timestamp;P1;durP1;ratioP1;P2;durP2;ratioP2
71969;SDS011;59838;52.152;5.436;2023-06-22T00:02:25;5.97;;;4.38;;
71969;SDS011;59838;52.152;5.436;2023-06-22T00:04:52;5.72;;;4.45;;
71969;SDS011;59838;52.152;5.436;2023-06-22T00:07:18;6.22;;;3.92;;
71969;SDS011;59838;52.152;5.436;2023-06-22T00:09:45;7.00;;;4.07;;
71969;SDS011;59838;52.152;5.436;2023-06-22T00:12:12;6.20;;;4.35;;
71969;SDS011;59838;52.152;5.436;2023-06-22T00:14:38;6.75;;;5.43;;
71969;SDS011;59838;52.152;5.436;2023-06-22T00:17:05;10.07;;;5.03;;
71969;SDS011;59838;52.152;5.436;2023-06-22T00:19:31;6.22;;;4.45;;
71969;SDS011;59838;52.152;5.436;2023-06-22T00:22:01;5.80;;;3.97;;
71969;SDS011;59838;52.152;5.436;2023-06-22T00:24:32;8.00;;;4.50;;
71969;SDS011;59838;52.152;5.436;2023-06-22T00:26:58;6.55;;;4.68;;
71969;SDS011;59838;52.152;5.436;2023-06-22T00:29:25;6.22;;;4.95;;
71969;SDS011;59838;52.152;5.436;2023-06-22T00:31:51;6.43;;;5.38;;
71969;SDS011;59838;52.152;5.436;2023-06-22T00:34:18;5.17;;;4.63;;
71969;SDS011;59838;52.152;5.436;2023-06-22T00:36:45;5.40;;;4.13;;
71969;SDS011;59838;52.152;5.436;2023-06-22T00:39:12;7.47;;;4.78;;
71969;SDS011;59838;52.152;5.436;2023-06-22T00:41:38;6.68;;;4.93;;
71969;SDS011;59838;52.152;5.436;2023-06-22T00:44:05;13.30;;;4.97;;
71969;SDS011;59838;52.152;5.436;2023-06-22T00:46:32;7.23;;;5.07;;
71969;SDS011;59838;52.152;5.436;2023-06-22T00:49:00;6.65;;;4.93;;
71969;SDS011;59838;52.152;5.436;2023-06-22T00:51:26;5.90;;;4.70;;
71969;SDS011;59838;52.152;5.436;2023-06-22T00:53:53;4.45;;;3.92;;
71969;SDS011;59838;52.152;5.436;2023-06-22T00:56:20;6.60;;;4.15;;
71969;SDS011;59838;52.152;5.436;2023-06-22T00:58:51;6.27;;;4.47;;
71969;SDS011;59838;52.152;5.436;2023-06-22T01:01:19;6.00;;;4.72;;
71969;SDS011;59838;52.152;5.436;2023-06-22T01:03:50;8.40;;;4.82;;
71969;SDS011;59838;52.152;5.436;2023-06-22T01:06:22;8.40;;;4.63;;
71969;SDS011;59838;52.152;5.436;2023-06-22T01:08:57;7.40;;;4.20;;
71969;SDS011;59838;52.152;5.436;2023-06-22T01:11:34;7.90;;;4.53;;
71969;SDS011;59838;52.152;5.436;2023-06-22T01:14:12;7.05;;;4.72;;
71969;SDS011;59838;52.152;5.436;2023-06-22T01:16:44;5.45;;;4.35;;
71969;SDS011;59838;52.152;5.436;2023-06-22T01:22:17;7.32;;;4.03;;
71969;SDS011;59838;52.152;5.436;2023-06-22T01:28:06;7.38;;;5.57;;
71969;SDS011;59838;52.152;5.436;2023-06-22T01:30:45;7.47;;;5.45;;
71969;SDS011;59838;52.152;5.436;2023-06-22T01:33:14;8.93;;;5.57;;
71969;SDS011;59838;52.152;5.436;2023-06-22T01:35:42;6.72;;;5.20;;
71969;SDS011;59838;52.152;5.436;2023-06-22T01:38:10;5.47;;;4.70;;
71969;SDS011;59838;52.152;5.436;2023-06-22T01:40:37;7.20;;;4.80;;
71969;SDS011;59838;52.152;5.436;2023-06-22T01:43:04;6.97;;;4.82;;
71969;SDS011;59838;52.152;5.436;2023-06-22T01:45:31;6.70;;;4.13;;
71969;SDS011;59838;52.152;5.436;2023-06-22T01:47:58;8.45;;;4.18;;
71969;SDS011;59838;52.152;5.436;2023-06-22T01:50:26;5.53;;;4.67;;
71969;SDS011;59838;52.152;5.436;2023-06-22T01:52:53;5.32;;;4.30;;
71969;SDS011;59838;52.152;5.436;2023-06-22T01:55:20;6.13;;;4.68;;
71969;SDS011;59838;52.152;5.436;2023-06-22T01:57:46;4.60;;;3.50;;
71969;SDS011;59838;52.152;5.436;2023-06-22T02:00:14;4.80;;;3.45;;
71969;SDS011;59838;52.152;5.436;2023-06-22T02:05:31;5.68;;;4.18;;
71969;SDS011;59838;52.152;5.436;2023-06-22T02:08:09;8.23;;;4.38;;
71969;SDS011;59838;52.152;5.436;2023-06-22T02:10:41;7.93;;;4.45;;
71969;SDS011;59838;52.152;5.436;2023-06-22T02:13:10;5.55;;;4.22;;
71969;SDS011;59838;52.152;5.436;2023-06-22T02:15:37;7.07;;;4.80;;
71969;SDS011;59838;52.152;5.436;2023-06-22T02:18:05;6.15;;;3.70;;
71969;SDS011;59838;52.152;5.436;2023-06-22T02:20:31;4.93;;;4.35;;
71969;SDS011;59838;52.152;5.436;2023-06-22T02:22:58;4.70;;;3.72;;
71969;SDS011;59838;52.152;5.436;2023-06-22T02:25:24;4.40;;;3.70;;
71969;SDS011;59838;52.152;5.436;2023-06-22T02:27:51;4.77;;;3.77;;
71969;SDS011;59838;52.152;5.436;2023-06-22T02:30:18;4.38;;;3.20;;
71969;SDS011;59838;52.152;5.436;2023-06-22T02:32:44;4.47;;;3.63;;
71969;SDS011;59838;52.152;5.436;2023-06-22T02:35:11;5.18;;;3.60;;
71969;SDS011;59838;52.152;5.436;2023-06-22T02:37:38;4.25;;;3.30;;
71969;SDS011;59838;52.152;5.436;2023-06-22T02:40:07;4.83;;;4.20;;
71969;SDS011;59838;52.152;5.436;2023-06-22T02:42:36;6.43;;;4.43;;
71969;SDS011;59838;52.152;5.436;2023-06-22T02:45:03;6.32;;;4.18;;
71969;SDS011;59838;52.152;5.436;2023-06-22T02:47:30;8.80;;;5.72;;
71969;SDS011;59838;52.152;5.436;2023-06-22T02:49:57;7.35;;;5.00;;
71969;SDS011;59838;52.152;5.436;2023-06-22T02:52:23;7.30;;;5.37;;
71969;SDS011;59838;52.152;5.436;2023-06-22T02:54:50;7.00;;;5.22;;
71969;SDS011;59838;52.152;5.436;2023-06-22T02:57:16;6.05;;;4.25;;
71969;SDS011;59838;52.152;5.436;2023-06-22T02:59:43;5.68;;;4.00;;
71969;SDS011;59838;52.152;5.436;2023-06-22T03:02:09;6.40;;;4.78;;
71969;SDS011;59838;52.152;5.436;2023-06-22T03:04:37;7.33;;;3.87;;
71969;SDS011;59838;52.152;5.436;2023-06-22T03:07:04;4.70;;;4.15;;
71969;SDS011;59838;52.152;5.436;2023-06-22T03:09:32;6.80;;;4.05;;
71969;SDS011;59838;52.152;5.436;2023-06-22T03:11:59;5.70;;;4.20;;
71969;SDS011;59838;52.152;5.436;2023-06-22T03:14:26;7.00;;;3.78;;
71969;SDS011;59838;52.152;5.436;2023-06-22T03:16:52;7.37;;;4.97;;
71969;SDS011;59838;52.152;5.436;2023-06-22T03:19:19;4.70;;;3.63;;
71969;SDS011;59838;52.152;5.436;2023-06-22T03:21:47;6.03;;;4.10;;
71969;SDS011;59838;52.152;5.436;2023-06-22T03:24:14;5.40;;;3.78;;
71969;SDS011;59838;52.152;5.436;2023-06-22T03:26:40;4.68;;;3.38;;
71969;SDS011;59838;52.152;5.436;2023-06-22T03:29:07;5.00;;;4.20;;
71969;SDS011;59838;52.152;5.436;2023-06-22T03:31:34;7.80;;;5.50;;
71969;SDS011;59838;52.152;5.436;2023-06-22T03:34:00;6.15;;;4.25;;
71969;SDS011;59838;52.152;5.436;2023-06-22T03:36:27;6.97;;;4.70;;
71969;SDS011;59838;52.152;5.436;2023-06-22T03:38:53;7.75;;;5.35;;
71969;SDS011;59838;52.152;5.436;2023-06-22T03:41:20;5.23;;;4.27;;
71969;SDS011;59838;52.152;5.436;2023-06-22T03:43:46;6.85;;;4.18;;
71969;SDS011;59838;52.152;5.436;2023-06-22T03:46:13;3.90;;;3.30;;
71969;SDS011;59838;52.152;5.436;2023-06-22T03:48:40;4.05;;;3.38;;
71969;SDS011;59838;52.152;5.436;2023-06-22T03:51:07;4.03;;;2.67;;
71969;SDS011;59838;52.152;5.436;2023-06-22T03:53:33;6.97;;;4.60;;
71969;SDS011;59838;52.152;5.436;2023-06-22T03:56:00;5.25;;;3.78;;
71969;SDS011;59838;52.152;5.436;2023-06-22T03:58:27;6.45;;;4.32;;
71969;SDS011;59838;52.152;5.436;2023-06-22T04:00:59;5.18;;;4.07;;
71969;SDS011;59838;52.152;5.436;2023-06-22T04:03:28;7.22;;;5.07;;
71969;SDS011;59838;52.152;5.436;2023-06-22T04:05:55;4.60;;;4.00;;
71969;SDS011;59838;52.152;5.436;2023-06-22T04:08:21;3.30;;;3.00;;
71969;SDS011;59838;52.152;5.436;2023-06-22T04:10:48;5.25;;;4.00;;
71969;SDS011;59838;52.152;5.436;2023-06-22T04:13:15;4.15;;;3.30;;
71969;SDS011;59838;52.152;5.436;2023-06-22T04:15:41;5.63;;;3.83;;
71969;SDS011;59838;52.152;5.436;2023-06-22T04:18:08;4.87;;;3.30;;
71969;SDS011;59838;52.152;5.436;2023-06-22T04:20:35;5.65;;;3.47;;
71969;SDS011;59838;52.152;5.436;2023-06-22T04:23:02;6.22;;;4.70;;
71969;SDS011;59838;52.152;5.436;2023-06-22T04:25:28;5.93;;;4.25;;
71969;SDS011;59838;52.152;5.436;2023-06-22T04:27:55;4.43;;;3.45;;
71969;SDS011;59838;52.152;5.436;2023-06-22T04:30:21;4.97;;;3.53;;
71969;SDS011;59838;52.152;5.436;2023-06-22T04:32:48;5.60;;;4.22;;
71969;SDS011;59838;52.152;5.436;2023-06-22T04:35:24;7.40;;;5.63;;
71969;SDS011;59838;52.152;5.436;2023-06-22T04:37:52;6.90;;;5.30;;
71969;SDS011;59838;52.152;5.436;2023-06-22T04:40:22;6.43;;;5.32;;
71969;SDS011;59838;52.152;5.436;2023-06-22T04:42:49;8.23;;;6.17;;
71969;SDS011;59838;52.152;5.436;2023-06-22T04:45:19;7.05;;;5.80;;
71969;SDS011;59838;52.152;5.436;2023-06-22T04:47:47;11.63;;;6.07;;
71969;SDS011;59838;52.152;5.436;2023-06-22T04:50:14;6.22;;;5.63;;
71969;SDS011;59838;52.152;5.436;2023-06-22T04:52:40;6.68;;;5.93;;
71969;SDS011;59838;52.152;5.436;2023-06-22T04:55:07;7.13;;;5.47;;
71969;SDS011;59838;52.152;5.436;2023-06-22T04:57:35;14.80;;;6.22;;
71969;SDS011;59838;52.152;5.436;2023-06-22T05:00:03;14.40;;;7.80;;
71969;SDS011;59838;52.152;5.436;2023-06-22T05:02:40;8.60;;;7.55;;
71969;SDS011;59838;52.152;5.436;2023-06-22T05:05:07;13.85;;;8.27;;
71969;SDS011;59838;52.152;5.436;2023-06-22T05:07:35;19.47;;;9.83;;
71969;SDS011;59838;52.152;5.436;2023-06-22T05:10:02;12.23;;;9.55;;
71969;SDS011;59838;52.152;5.436;2023-06-22T05:12:29;15.88;;;10.75;;
71969;SDS011;59838;52.152;5.436;2023-06-22T05:14:56;18.67;;;10.63;;
71969;SDS011;59838;52.152;5.436;2023-06-22T05:17:24;15.88;;;10.35;;
71969;SDS011;59838;52.152;5.436;2023-06-22T05:19:50;15.70;;;11.20;;
71969;SDS011;59838;52.152;5.436;2023-06-22T05:22:17;17.38;;;11.65;;
71969;SDS011;59838;52.152;5.436;2023-06-22T05:24:44;18.30;;;12.60;;
71969;SDS011;59838;52.152;5.436;2023-06-22T05:27:11;17.48;;;13.15;;
71969;SDS011;59838;52.152;5.436;2023-06-22T05:29:37;19.38;;;13.02;;
71969;SDS011;59838;52.152;5.436;2023-06-22T05:32:04;14.53;;;12.60;;
71969;SDS011;59838;52.152;5.436;2023-06-22T05:34:31;18.70;;;13.40;;
71969;SDS011;59838;52.152;5.436;2023-06-22T05:36:57;19.98;;;14.13;;
71969;SDS011;59838;52.152;5.436;2023-06-22T05:39:27;18.98;;;13.77;;
71969;SDS011;59838;52.152;5.436;2023-06-22T05:41:53;18.88;;;13.63;;
71969;SDS011;59838;52.152;5.436;2023-06-22T05:44:20;19.40;;;14.23;;
71969;SDS011;59838;52.152;5.436;2023-06-22T05:46:46;20.35;;;14.73;;
71969;SDS011;59838;52.152;5.436;2023-06-22T05:49:14;19.70;;;15.30;;
71969;SDS011;59838;52.152;5.436;2023-06-22T05:51:42;20.20;;;15.70;;
71969;SDS011;59838;52.152;5.436;2023-06-22T05:54:08;20.63;;;15.30;;
71969;SDS011;59838;52.152;5.436;2023-06-22T05:56:35;19.10;;;14.30;;
71969;SDS011;59838;52.152;5.436;2023-06-22T05:59:01;24.83;;;16.38;;
71969;SDS011;59838;52.152;5.436;2023-06-22T06:01:28;26.13;;;15.90;;
71969;SDS011;59838;52.152;5.436;2023-06-22T06:03:55;20.73;;;16.17;;
71969;SDS011;59838;52.152;5.436;2023-06-22T06:06:21;21.92;;;15.80;;
71969;SDS011;59838;52.152;5.436;2023-06-22T06:08:55;23.60;;;15.40;;
71969;SDS011;59838;52.152;5.436;2023-06-22T06:11:22;19.40;;;14.88;;
71969;SDS011;59838;52.152;5.436;2023-06-22T06:13:49;20.25;;;15.20;;
71969;SDS011;59838;52.152;5.436;2023-06-22T06:16:16;21.33;;;15.50;;
71969;SDS011;59838;52.152;5.436;2023-06-22T06:18:43;23.48;;;15.32;;
71969;SDS011;59838;52.152;5.436;2023-06-22T06:21:09;22.33;;;14.73;;
71969;SDS011;59838;52.152;5.436;2023-06-22T06:23:36;19.45;;;14.15;;
71969;SDS011;59838;52.152;5.436;2023-06-22T06:26:02;17.42;;;14.85;;
71969;SDS011;59838;52.152;5.436;2023-06-22T06:28:34;20.23;;;14.57;;
71969;SDS011;59838;52.152;5.436;2023-06-22T06:31:01;18.95;;;14.73;;
71969;SDS011;59838;52.152;5.436;2023-06-22T06:33:27;18.53;;;14.83;;
71969;SDS011;59838;52.152;5.436;2023-06-22T06:35:54;22.98;;;15.20;;
71969;SDS011;59838;52.152;5.436;2023-06-22T06:38:22;20.63;;;14.20;;
71969;SDS011;59838;52.152;5.436;2023-06-22T06:40:48;19.25;;;15.43;;
71969;SDS011;59838;52.152;5.436;2023-06-22T06:43:15;16.52;;;14.57;;
71969;SDS011;59838;52.152;5.436;2023-06-22T06:45:41;21.67;;;14.63;;
71969;SDS011;59838;52.152;5.436;2023-06-22T06:48:08;22.45;;;15.13;;
71969;SDS011;59838;52.152;5.436;2023-06-22T06:50:35;19.75;;;15.55;;
71969;SDS011;59838;52.152;5.436;2023-06-22T06:53:02;17.30;;;14.25;;
71969;SDS011;59838;52.152;5.436;2023-06-22T06:55:33;22.67;;;14.82;;
71969;SDS011;59838;52.152;5.436;2023-06-22T06:58:01;16.33;;;13.43;;
71969;SDS011;59838;52.152;5.436;2023-06-22T07:00:30;14.90;;;12.55;;
71969;SDS011;59838;52.152;5.436;2023-06-22T07:02:57;14.13;;;12.25;;
71969;SDS011;59838;52.152;5.436;2023-06-22T07:05:24;15.65;;;13.10;;
71969;SDS011;59838;52.152;5.436;2023-06-22T07:07:51;22.55;;;13.82;;
71969;SDS011;59838;52.152;5.436;2023-06-22T07:10:19;13.97;;;11.83;;
71969;SDS011;59838;52.152;5.436;2023-06-22T07:12:45;15.45;;;12.35;;
71969;SDS011;59838;52.152;5.436;2023-06-22T07:15:13;16.00;;;12.75;;
71969;SDS011;59838;52.152;5.436;2023-06-22T07:17:40;13.73;;;10.80;;
71969;SDS011;59838;52.152;5.436;2023-06-22T07:20:08;14.52;;;11.68;;
71969;SDS011;59838;52.152;5.436;2023-06-22T07:22:38;15.43;;;11.50;;
71969;SDS011;59838;52.152;5.436;2023-06-22T07:25:06;15.00;;;11.73;;
71969;SDS011;59838;52.152;5.436;2023-06-22T07:27:36;13.80;;;10.90;;
71969;SDS011;59838;52.152;5.436;2023-06-22T07:30:04;18.83;;;10.40;;
71969;SDS011;59838;52.152;5.436;2023-06-22T07:32:31;15.50;;;11.95;;
71969;SDS011;59838;52.152;5.436;2023-06-22T07:34:59;15.23;;;10.97;;
71969;SDS011;59838;52.152;5.436;2023-06-22T07:37:25;12.15;;;10.80;;
71969;SDS011;59838;52.152;5.436;2023-06-22T07:39:54;11.65;;;10.45;;
71969;SDS011;59838;52.152;5.436;2023-06-22T07:42:25;14.48;;;10.73;;
71969;SDS011;59838;52.152;5.436;2023-06-22T07:44:52;17.25;;;11.70;;
71969;SDS011;59838;52.152;5.436;2023-06-22T07:47:18;12.90;;;10.20;;
71969;SDS011;59838;52.152;5.436;2023-06-22T07:49:46;11.88;;;10.43;;
71969;SDS011;59838;52.152;5.436;2023-06-22T07:52:12;11.25;;;9.63;;
71969;SDS011;59838;52.152;5.436;2023-06-22T07:54:39;10.70;;;9.60;;
71969;SDS011;59838;52.152;5.436;2023-06-22T07:57:05;10.60;;;9.55;;
71969;SDS011;59838;52.152;5.436;2023-06-22T07:59:32;12.43;;;9.10;;
71969;SDS011;59838;52.152;5.436;2023-06-22T08:01:59;11.23;;;10.02;;
71969;SDS011;59838;52.152;5.436;2023-06-22T08:04:26;11.80;;;9.57;;
71969;SDS011;59838;52.152;5.436;2023-06-22T08:06:55;13.10;;;9.50;;
71969;SDS011;59838;52.152;5.436;2023-06-22T08:09:21;9.93;;;8.88;;
71969;SDS011;59838;52.152;5.436;2023-06-22T08:11:48;11.50;;;9.17;;
71969;SDS011;59838;52.152;5.436;2023-06-22T08:14:15;12.85;;;9.02;;
71969;SDS011;59838;52.152;5.436;2023-06-22T08:16:42;12.93;;;9.98;;
71969;SDS011;59838;52.152;5.436;2023-06-22T08:19:09;9.63;;;8.63;;
71969;SDS011;59838;52.152;5.436;2023-06-22T08:21:35;10.75;;;8.80;;
71969;SDS011;59838;52.152;5.436;2023-06-22T08:24:02;10.80;;;9.10;;
71969;SDS011;59838;52.152;5.436;2023-06-22T08:26:29;14.18;;;9.48;;
71969;SDS011;59838;52.152;5.436;2023-06-22T08:28:55;10.38;;;8.68;;
71969;SDS011;59838;52.152;5.436;2023-06-22T08:31:22;10.98;;;8.40;;
71969;SDS011;59838;52.152;5.436;2023-06-22T08:33:48;12.93;;;8.48;;
71969;SDS011;59838;52.152;5.436;2023-06-22T08:36:15;14.47;;;8.40;;
71969;SDS011;59838;52.152;5.436;2023-06-22T08:38:42;9.73;;;8.50;;
71969;SDS011;59838;52.152;5.436;2023-06-22T08:41:09;9.95;;;7.57;;
71969;SDS011;59838;52.152;5.436;2023-06-22T08:43:35;8.00;;;6.70;;
71969;SDS011;59838;52.152;5.436;2023-06-22T08:46:02;9.98;;;7.10;;
71969;SDS011;59838;52.152;5.436;2023-06-22T08:48:29;9.33;;;7.30;;
71969;SDS011;59838;52.152;5.436;2023-06-22T08:50:55;7.38;;;6.68;;
71969;SDS011;59838;52.152;5.436;2023-06-22T08:53:22;9.40;;;7.57;;
71969;SDS011;59838;52.152;5.436;2023-06-22T08:55:48;10.70;;;7.68;;
71969;SDS011;59838;52.152;5.436;2023-06-22T08:58:17;6.20;;;5.47;;
71969;SDS011;59838;52.152;5.436;2023-06-22T09:00:44;7.47;;;5.70;;
71969;SDS011;59838;52.152;5.436;2023-06-22T09:03:11;7.18;;;5.00;;
71969;SDS011;59838;52.152;5.436;2023-06-22T09:05:38;6.68;;;6.00;;
71969;SDS011;59838;52.152;5.436;2023-06-22T09:08:04;6.13;;;5.18;;
71969;SDS011;59838;52.152;5.436;2023-06-22T09:10:31;6.63;;;5.13;;
71969;SDS011;59838;52.152;5.436;2023-06-22T09:12:58;8.10;;;5.03;;
71969;SDS011;59838;52.152;5.436;2023-06-22T09:15:24;6.65;;;5.53;;
71969;SDS011;59838;52.152;5.436;2023-06-22T09:17:51;6.28;;;4.65;;
71969;SDS011;59838;52.152;5.436;2023-06-22T09:20:20;7.32;;;4.40;;
71969;SDS011;59838;52.152;5.436;2023-06-22T09:22:48;5.88;;;5.00;;
71969;SDS011;59838;52.152;5.436;2023-06-22T09:25:15;5.17;;;4.67;;
71969;SDS011;59838;52.152;5.436;2023-06-22T09:27:42;6.05;;;5.38;;
71969;SDS011;59838;52.152;5.436;2023-06-22T09:30:09;9.10;;;5.43;;
71969;SDS011;59838;52.152;5.436;2023-06-22T09:32:35;5.43;;;4.03;;
71969;SDS011;59838;52.152;5.436;2023-06-22T09:35:03;5.88;;;3.83;;
71969;SDS011;59838;52.152;5.436;2023-06-22T09:37:32;7.33;;;4.50;;
71969;SDS011;59838;52.152;5.436;2023-06-22T09:39:58;4.95;;;4.43;;
71969;SDS011;59838;52.152;5.436;2023-06-22T09:42:25;7.10;;;4.70;;
71969;SDS011;59838;52.152;5.436;2023-06-22T09:44:51;3.63;;;2.47;;
71969;SDS011;59838;52.152;5.436;2023-06-22T09:47:18;3.28;;;2.97;;
71969;SDS011;59838;52.152;5.436;2023-06-22T09:49:44;4.77;;;3.30;;
71969;SDS011;59838;52.152;5.436;2023-06-22T09:52:14;4.53;;;3.83;;
71969;SDS011;59838;52.152;5.436;2023-06-22T09:54:40;20.73;;;4.43;;
71969;SDS011;59838;52.152;5.436;2023-06-22T09:57:07;4.40;;;3.58;;
71969;SDS011;59838;52.152;5.436;2023-06-22T09:59:34;4.38;;;3.58;;
71969;SDS011;59838;52.152;5.436;2023-06-22T10:02:00;5.10;;;3.63;;
71969;SDS011;59838;52.152;5.436;2023-06-22T10:04:27;4.43;;;3.63;;
71969;SDS011;59838;52.152;5.436;2023-06-22T10:06:54;3.78;;;3.30;;
71969;SDS011;59838;52.152;5.436;2023-06-22T10:09:20;4.72;;;3.60;;
71969;SDS011;59838;52.152;5.436;2023-06-22T10:11:47;4.13;;;3.63;;
71969;SDS011;59838;52.152;5.436;2023-06-22T10:14:14;4.67;;;3.20;;
71969;SDS011;59838;52.152;5.436;2023-06-22T10:16:40;4.45;;;3.03;;
71969;SDS011;59838;52.152;5.436;2023-06-22T10:19:08;4.70;;;3.75;;
71969;SDS011;59838;52.152;5.436;2023-06-22T10:21:34;5.35;;;3.33;;
71969;SDS011;59838;52.152;5.436;2023-06-22T10:24:01;5.20;;;3.47;;
71969;SDS011;59838;52.152;5.436;2023-06-22T10:26:33;4.83;;;2.90;;
71969;SDS011;59838;52.152;5.436;2023-06-22T10:29:02;4.28;;;3.15;;
71969;SDS011;59838;52.152;5.436;2023-06-22T10:31:32;4.60;;;3.35;;
71969;SDS011;59838;52.152;5.436;2023-06-22T10:33:58;7.20;;;4.15;;
71969;SDS011;59838;52.152;5.436;2023-06-22T10:36:25;4.95;;;4.45;;
71969;SDS011;59838;52.152;5.436;2023-06-22T10:38:51;4.73;;;3.60;;
71969;SDS011;59838;52.152;5.436;2023-06-22T10:41:19;4.47;;;4.00;;
71969;SDS011;59838;52.152;5.436;2023-06-22T10:43:46;4.22;;;3.83;;
71969;SDS011;59838;52.152;5.436;2023-06-22T10:46:12;4.53;;;3.28;;
71969;SDS011;59838;52.152;5.436;2023-06-22T10:48:39;6.25;;;4.57;;
71969;SDS011;59838;52.152;5.436;2023-06-22T10:51:05;5.37;;;3.80;;
71969;SDS011;59838;52.152;5.436;2023-06-22T10:53:32;4.88;;;4.00;;
71969;SDS011;59838;52.152;5.436;2023-06-22T10:55:58;5.03;;;4.53;;
71969;SDS011;59838;52.152;5.436;2023-06-22T10:58:25;6.53;;;4.63;;
71969;SDS011;59838;52.152;5.436;2023-06-22T11:00:52;6.55;;;4.30;;
71969;SDS011;59838;52.152;5.436;2023-06-22T11:03:19;7.27;;;4.80;;
71969;SDS011;59838;52.152;5.436;2023-06-22T11:05:45;6.35;;;4.43;;
71969;SDS011;59838;52.152;5.436;2023-06-22T11:08:14;5.75;;;4.70;;
71969;SDS011;59838;52.152;5.436;2023-06-22T11:10:41;8.10;;;4.43;;
71969;SDS011;59838;52.152;5.436;2023-06-22T11:13:08;6.20;;;4.00;;
71969;SDS011;59838;52.152;5.436;2023-06-22T11:15:38;7.17;;;4.47;;
71969;SDS011;59838;52.152;5.436;2023-06-22T11:18:05;5.15;;;4.65;;
71969;SDS011;59838;52.152;5.436;2023-06-22T11:20:33;9.60;;;5.82;;
71969;SDS011;59838;52.152;5.436;2023-06-22T11:23:04;9.43;;;5.78;;
71969;SDS011;59838;52.152;5.436;2023-06-22T11:25:32;8.70;;;5.53;;
71969;SDS011;59838;52.152;5.436;2023-06-22T11:28:02;9.40;;;5.40;;
71969;SDS011;59838;52.152;5.436;2023-06-22T11:30:29;7.65;;;5.80;;
71969;SDS011;59838;52.152;5.436;2023-06-22T11:32:58;9.63;;;6.15;;
71969;SDS011;59838;52.152;5.436;2023-06-22T11:35:25;8.57;;;6.97;;
71969;SDS011;59838;52.152;5.436;2023-06-22T11:37:52;10.48;;;7.28;;
71969;SDS011;59838;52.152;5.436;2023-06-22T11:40:18;12.40;;;7.83;;
71969;SDS011;59838;52.152;5.436;2023-06-22T11:42:45;10.77;;;7.80;;
71969;SDS011;59838;52.152;5.436;2023-06-22T11:45:12;9.80;;;7.90;;
71969;SDS011;59838;52.152;5.436;2023-06-22T11:47:38;10.68;;;7.22;;
71969;SDS011;59838;52.152;5.436;2023-06-22T11:50:05;10.07;;;7.40;;
71969;SDS011;59838;52.152;5.436;2023-06-22T11:52:33;13.13;;;7.17;;
71969;SDS011;59838;52.152;5.436;2023-06-22T11:55:00;10.32;;;7.55;;
71969;SDS011;59838;52.152;5.436;2023-06-22T11:57:29;12.30;;;8.32;;
71969;SDS011;59838;52.152;5.436;2023-06-22T11:59:56;10.95;;;7.45;;
71969;SDS011;59838;52.152;5.436;2023-06-22T12:02:22;10.68;;;8.48;;
71969;SDS011;59838;52.152;5.436;2023-06-22T12:04:49;11.70;;;8.93;;
71969;SDS011;59838;52.152;5.436;2023-06-22T12:07:18;11.23;;;7.70;;
71969;SDS011;59838;52.152;5.436;2023-06-22T12:09:45;10.48;;;8.43;;
71969;SDS011;59838;52.152;5.436;2023-06-22T12:12:12;10.55;;;8.20;;
71969;SDS011;59838;52.152;5.436;2023-06-22T12:14:38;10.98;;;8.43;;
71969;SDS011;59838;52.152;5.436;2023-06-22T12:17:05;8.73;;;7.77;;
71969;SDS011;59838;52.152;5.436;2023-06-22T12:19:31;10.25;;;8.35;;
71969;SDS011;59838;52.152;5.436;2023-06-22T12:21:58;11.00;;;8.77;;
71969;SDS011;59838;52.152;5.436;2023-06-22T12:24:25;11.65;;;8.35;;
71969;SDS011;59838;52.152;5.436;2023-06-22T12:26:51;11.43;;;9.23;;
71969;SDS011;59838;52.152;5.436;2023-06-22T12:29:21;11.10;;;8.00;;
71969;SDS011;59838;52.152;5.436;2023-06-22T12:31:48;13.50;;;7.57;;
71969;SDS011;59838;52.152;5.436;2023-06-22T12:34:14;12.20;;;7.50;;
71969;SDS011;59838;52.152;5.436;2023-06-22T12:36:41;9.80;;;7.53;;
71969;SDS011;59838;52.152;5.436;2023-06-22T12:39:08;13.23;;;9.23;;
71969;SDS011;59838;52.152;5.436;2023-06-22T12:41:34;11.10;;;7.73;;
71969;SDS011;59838;52.152;5.436;2023-06-22T12:44:01;11.15;;;8.98;;
71969;SDS011;59838;52.152;5.436;2023-06-22T12:46:28;10.73;;;7.97;;
71969;SDS011;59838;52.152;5.436;2023-06-22T12:48:56;12.05;;;7.18;;
71969;SDS011;59838;52.152;5.436;2023-06-22T12:51:24;9.65;;;6.57;;
71969;SDS011;59838;52.152;5.436;2023-06-22T12:53:51;7.37;;;6.03;;
71969;SDS011;59838;52.152;5.436;2023-06-22T12:56:17;8.18;;;6.97;;
71969;SDS011;59838;52.152;5.436;2023-06-22T12:58:44;6.60;;;5.95;;
71969;SDS011;59838;52.152;5.436;2023-06-22T13:01:10;7.38;;;6.40;;
71969;SDS011;59838;52.152;5.436;2023-06-22T13:03:37;9.50;;;6.57;;
71969;SDS011;59838;52.152;5.436;2023-06-22T13:06:03;12.07;;;6.10;;
71969;SDS011;59838;52.152;5.436;2023-06-22T13:08:30;7.72;;;6.93;;
71969;SDS011;59838;52.152;5.436;2023-06-22T13:11:17;7.97;;;6.50;;
71969;SDS011;59838;52.152;5.436;2023-06-22T13:13:44;12.95;;;7.15;;
71969;SDS011;59838;52.152;5.436;2023-06-22T13:16:12;10.70;;;7.05;;
71969;SDS011;59838;52.152;5.436;2023-06-22T13:18:39;10.03;;;8.03;;
71969;SDS011;59838;52.152;5.436;2023-06-22T13:21:05;13.43;;;7.20;;
71969;SDS011;59838;52.152;5.436;2023-06-22T13:23:32;11.07;;;6.57;;
71969;SDS011;59838;52.152;5.436;2023-06-22T13:25:58;12.05;;;7.72;;
71969;SDS011;59838;52.152;5.436;2023-06-22T13:28:26;9.10;;;7.13;;
71969;SDS011;59838;52.152;5.436;2023-06-22T13:30:54;8.70;;;6.67;;
71969;SDS011;59838;52.152;5.436;2023-06-22T13:33:21;10.00;;;6.75;;
71969;SDS011;59838;52.152;5.436;2023-06-22T13:35:47;7.38;;;6.22;;
71969;SDS011;59838;52.152;5.436;2023-06-22T13:38:14;8.70;;;7.25;;
71969;SDS011;59838;52.152;5.436;2023-06-22T13:40:41;11.25;;;7.05;;
71969;SDS011;59838;52.152;5.436;2023-06-22T13:43:07;8.67;;;7.77;;
71969;SDS011;59838;52.152;5.436;2023-06-22T13:45:34;12.35;;;7.53;;
71969;SDS011;59838;52.152;5.436;2023-06-22T13:48:01;10.60;;;7.10;;
71969;SDS011;59838;52.152;5.436;2023-06-22T13:50:28;10.02;;;7.90;;
71969;SDS011;59838;52.152;5.436;2023-06-22T13:52:56;12.00;;;7.93;;
71969;SDS011;59838;52.152;5.436;2023-06-22T13:55:23;7.47;;;6.67;;
71969;SDS011;59838;52.152;5.436;2023-06-22T13:57:49;10.48;;;8.05;;
71969;SDS011;59838;52.152;5.436;2023-06-22T14:00:17;10.38;;;8.18;;
71969;SDS011;59838;52.152;5.436;2023-06-22T14:02:44;16.08;;;8.40;;
71969;SDS011;59838;52.152;5.436;2023-06-22T14:05:11;10.30;;;8.07;;
71969;SDS011;59838;52.152;5.436;2023-06-22T14:07:38;9.40;;;7.70;;
71969;SDS011;59838;52.152;5.436;2023-06-22T14:10:04;11.02;;;8.15;;
71969;SDS011;59838;52.152;5.436;2023-06-22T14:12:31;8.65;;;7.82;;
71969;SDS011;59838;52.152;5.436;2023-06-22T14:14:58;15.32;;;8.63;;
71969;SDS011;59838;52.152;5.436;2023-06-22T14:17:24;12.10;;;8.85;;
71969;SDS011;59838;52.152;5.436;2023-06-22T14:19:52;9.80;;;8.40;;
71969;SDS011;59838;52.152;5.436;2023-06-22T14:22:19;10.13;;;8.07;;
71969;SDS011;59838;52.152;5.436;2023-06-22T14:24:47;9.82;;;8.63;;
71969;SDS011;59838;52.152;5.436;2023-06-22T14:27:14;11.45;;;8.90;;
71969;SDS011;59838;52.152;5.436;2023-06-22T14:29:41;11.75;;;8.98;;
71969;SDS011;59838;52.152;5.436;2023-06-22T14:32:08;13.73;;;8.27;;
71969;SDS011;59838;52.152;5.436;2023-06-22T14:34:35;11.43;;;8.50;;
71969;SDS011;59838;52.152;5.436;2023-06-22T14:37:08;9.13;;;8.23;;
71969;SDS011;59838;52.152;5.436;2023-06-22T14:39:39;12.10;;;8.85;;
71969;SDS011;59838;52.152;5.436;2023-06-22T14:42:06;11.30;;;9.07;;
71969;SDS011;59838;52.152;5.436;2023-06-22T14:44:33;10.43;;;9.00;;
71969;SDS011;59838;52.152;5.436;2023-06-22T14:47:00;11.98;;;8.77;;
71969;SDS011;59838;52.152;5.436;2023-06-22T14:49:27;12.93;;;9.15;;
71969;SDS011;59838;52.152;5.436;2023-06-22T14:51:54;12.05;;;9.43;;